Time;durP1;ratioP1;P1;durP2;ratioP2;P2;SDS_P1;SDS_P2;PMS_P1;PMS_P2;Temp;Humidity;BMP_temperature;BMP_pressure;BME280_temperature;BME280_humidity;BME280_pressure;Samples;Min_cycle;Max_cycle;Signal;HPM_P1;HPM_P2
2023/05/15 00:01:13;;;;;;;0.73;0.60;;;;;;;;;;21060748;28;20297;-84
2023/05/15 00:11:27;;;;;;;1.00;0.63;;;;;;;;;;21058489;28;20224;-82
2023/05/15 00:21:28;;;;;;;0.53;0.50;;;;;;;;;;21041524;28;20714;-82
2023/05/15 00:31:32;;;;;;;0.70;0.60;;;;;;;;;;21042234;28;20639;-82
2023/05/15 00:41:35;;;;;;;0.50;0.50;;;17.00;99.90;;;;;;21040613;28;20602;-83
2023/05/15 00:51:37;;;;;;;0.60;0.50;;;;;;;;;;21041889;28;20204;-84
2023/05/15 01:01:39;;;;;;;0.90;0.60;;;;;;;;;;21039938;28;20587;-84
2023/05/15 01:11:41;;;;;;;1.50;0.77;;;17.00;99.90;;;;;;21056241;28;20221;-84
2023/05/15 01:21:56;;;;;;;1.10;0.50;;;;;;;;;;21039376;28;20245;-85
2023/05/15 01:32:05;;;;;;;0.90;0.70;;;16.60;99.90;;;;;;21041213;28;20220;-83
2023/05/15 01:42:08;;;;;;;0.90;0.60;;;;;;;;;;21040384;28;20637;-83
2023/05/15 01:52:16;;;;;;;0.70;0.57;;;;;;;;;;21085160;28;20269;-82
2023/05/15 02:02:18;;;;;;;1.20;0.60;;;16.40;99.90;;;;;;21035785;28;20232;-82
2023/05/15 02:12:27;;;;;;;0.73;0.53;;;;;;;;;;21053612;28;20212;-82
2023/05/15 02:22:28;;;;;;;3.03;0.70;;;;;;;;;;21026100;28;20579;-82
2023/05/15 02:32:39;;;;;;;1.47;0.73;;;;;;;;;;21067924;28;20225;-82
2023/05/15 02:42:42;;;;;;;1.27;0.80;;;;;;;;;;21033311;28;20257;-82
2023/05/15 02:52:46;;;;;;;0.73;0.60;;;;;;;;;;21065427;28;20217;-83
2023/05/15 03:02:52;;;;;;;0.90;0.60;;;;;;;;;;21032131;28;20244;-82
2023/05/15 03:12:57;;;;;;;1.67;0.70;;;;;;;;;;21031251;28;20250;-82
2023/05/15 03:22:58;;;;;;;1.03;0.70;;;;;;;;;;21017911;28;20216;-81
2023/05/15 03:33:02;;;;;;;0.60;0.50;;;;;;;;;;21062781;28;20220;-81
2023/05/15 03:43:04;;;;;;;0.90;0.60;;;;;;;;;;21061896;28;20224;-81
2023/05/15 03:53:06;;;;;;;0.87;0.57;;;;;;;;;;21062477;28;20270;-81
2023/05/15 04:03:09;;;;;;;1.03;0.73;;;;;;;;;;21061949;28;20235;-81
2023/05/15 04:13:11;;;;;;;1.00;0.70;;;;;;;;;;21080345;28;20229;-81
2023/05/15 04:23:12;;;;;;;1.50;0.87;;;;;;;;;;21045782;28;20289;-81
2023/05/15 04:33:14;;;;;;;1.70;0.90;;;;;;;;;;21045040;28;20277;-81
2023/05/15 04:43:16;;;;;;;1.23;0.80;;;;;;;;;;21079209;28;20236;-82
2023/05/15 04:53:18;;;;;;;1.57;0.80;;;;;;;;;;21099681;28;20217;-82
2023/05/15 05:03:20;;;;;;;1.00;0.80;;;;;;;;;;21125060;28;20293;-83
2023/05/15 05:13:22;;;;;;;1.20;0.90;;;;;;;;;;21084585;28;20270;-82
2023/05/15 05:23:23;;;;;;;1.27;0.90;;;;;;;;;;21062163;28;20228;-82
2023/05/15 05:33:26;;;;;;;1.10;0.80;;;;;;;;;;21027278;28;20651;-80
2023/05/15 05:43:27;;;;;;;1.20;0.70;;;;;;;;;;20989423;28;20245;-80
2023/05/15 05:53:29;;;;;;;2.60;0.80;;;;;;;;;;20991967;28;20197;-81
2023/05/15 06:03:31;;;;;;;2.43;1.10;;;;;;;;;;21008208;28;20714;-81
2023/05/15 06:13:32;;;;;;;4.33;1.10;;;;;;;;;;20990017;28;20282;-80
2023/05/15 06:23:34;;;;;;;2.40;0.70;;;;;;;;;;20978356;28;20588;-80
2023/05/15 06:33:36;;;;;;;1.20;0.80;;;;;;;;;;21005786;28;20226;-80
2023/05/15 06:43:38;;;;;;;1.27;0.87;;;;;;;;;;20997668;28;20270;-80
2023/05/15 06:53:40;;;;;;;3.43;0.87;;;16.70;99.90;;;;;;21004551;28;20282;-80
2023/05/15 07:03:42;;;;;;;1.13;0.83;;;;;;;;;;21003979;28;20255;-80
2023/05/15 07:13:44;;;;;;;1.40;0.97;;;;;;;;;;21001350;28;20213;-80
2023/05/15 07:23:46;;;;;;;1.50;0.90;;;;;;;;;;20973757;28;20651;-81
2023/05/15 07:33:47;;;;;;;1.77;0.90;;;;;;;;;;20984067;28;20629;-80
2023/05/15 07:43:51;;;;;;;1.60;0.90;;;;;;;;;;20992560;28;20229;-81
2023/05/15 07:53:53;;;;;;;2.90;0.80;;;;;;;;;;21066876;28;20212;-83
2023/05/15 08:03:56;;;;;;;1.07;0.80;;;;;;;;;;21077236;28;20693;-80
2023/05/15 08:13:58;;;;;;;1.33;0.80;;;19.00;99.90;;;;;;21086963;28;20255;-81
2023/05/15 08:24:00;;;;;;;2.40;1.00;;;19.00;99.90;;;;;;21096734;28;20597;-81
2023/05/15 08:34:01;;;;;;;1.50;0.90;;;;;;;;;;21074076;28;20211;-80
2023/05/15 08:44:04;;;;;;;1.17;0.87;;;;;;;;;;21065581;28;20290;-80
2023/05/15 08:54:08;;;;;;;2.43;1.20;;;;;;;;;;21090345;28;20236;-81
2023/05/15 09:04:10;;;;;;;1.47;1.00;;;;;;;;;;21036581;28;20580;-81
2023/05/15 09:14:12;;;;;;;1.67;0.90;;;;;;;;;;21086169;28;20218;-81
2023/05/15 09:24:24;;;;;;;1.37;0.90;;;20.10;99.90;;;;;;21077828;28;20234;-82
2023/05/15 09:34:30;;;;;;;2.23;1.13;;;20.10;99.90;;;;;;21059242;28;20210;-81
2023/05/15 09:44:33;;;;;;;1.53;1.10;;;;;;;;;;21043344;28;20812;-81
2023/05/15 09:54:35;;;;;;;1.80;1.20;;;21.10;99.90;;;;;;21063539;28;20275;-81
2023/05/15 10:04:38;;;;;;;1.40;0.97;;;;;;;;;;21060516;28;20219;-80
2023/05/15 10:14:40;;;;;;;2.40;1.60;;;;;;;;;;21045021;28;20203;-80
2023/05/15 10:24:45;;;;;;;2.80;1.67;;;22.40;99.90;;;;;;21080045;28;20688;-80
2023/05/15 10:34:48;;;;;;;2.87;1.63;;;22.20;99.90;;;;;;21075355;28;20212;-81
2023/05/15 10:44:50;;;;;;;2.60;1.73;;;;;;;;;;21094773;28;20263;-80
2023/05/15 10:54:55;;;;;;;3.77;2.60;;;;;;;;;;21078009;28;20273;-79
2023/05/15 11:05:00;;;;;;;2.93;1.80;;;;;;;;;;21071664;28;20585;-82
2023/05/15 11:15:02;;;;;;;3.00;2.07;;;;;;;;;;21069288;28;20277;-83
2023/05/15 11:25:04;;;;;;;2.70;2.00;;;;;;;;;;21068397;28;20234;-83
2023/05/15 11:35:26;;;;;;;4.63;2.77;;;20.80;99.90;;;;;;21066540;28;20624;-83
2023/05/15 11:45:33;;;;;;;3.73;2.53;;;21.50;99.90;;;;;;21057823;28;20281;-80
2023/05/15 11:55:36;;;;;;;3.80;2.10;;;;;;;;;;21067398;28;20586;-82
2023/05/15 12:05:40;;;;;;;2.40;1.63;;;;;;;;;;21051728;28;20207;-82
2023/05/15 12:15:44;;;;;;;4.17;1.63;;;;;;;;;;21081544;28;20214;-82
2023/05/15 12:25:47;;;;;;;1.60;0.90;;;22.20;99.90;;;;;;21002893;28;20254;-81
2023/05/15 12:35:54;;;;;;;0.80;0.60;;;22.60;99.90;;;;;;21060490;28;20277;-81
2023/05/15 12:45:56;;;;;;;0.93;0.70;;;23.10;99.90;;;;;;21022019;28;20252;-81
2023/05/15 12:55:58;;;;;;;1.27;0.75;;;;;;;;;;20975876;28;20214;-81
2023/05/15 13:06:01;;;;;;;1.20;0.77;;;22.40;99.90;;;;;;20995333;28;20225;-81
2023/05/15 13:16:03;;;;;;;1.50;0.75;;;;;;;;;;20960629;28;20231;-80
2023/05/15 13:26:04;;;;;;;1.07;0.63;;;;;;;;;;20994541;28;20233;-80
2023/05/15 13:36:06;;;;;;;2.40;0.80;;;;;;;;;;20992622;28;20224;-80
2023/05/15 13:46:08;;;;;;;0.85;0.65;;;;;;;;;;20974011;28;20276;-80
2023/05/15 13:56:10;;;;;;;2.10;1.25;;;;;;;;;;20993137;28;20645;-82
2023/05/15 14:06:12;;;;;;;1.45;1.00;;;;;;;;;;20991482;28;20233;-80
2023/05/15 14:16:13;;;;;;;2.45;1.00;;;;;;;;;;20994038;28;20275;-80
2023/05/15 14:26:15;;;;;;;2.50;1.33;;;;;;;;;;21073205;28;20206;-81
2023/05/15 14:36:17;;;;;;;2.10;1.40;;;;;;;;;;21076520;28;20232;-80
2023/05/15 14:46:19;;;;;;;2.83;1.52;;;;;;;;;;21030493;28;20222;-80
2023/05/15 14:56:21;;;;;;;2.72;1.58;;;;;;;;;;20986320;28;20293;-81
2023/05/15 15:06:22;;;;;;;2.17;1.48;;;;;;;;;;20907388;28;20229;-82
2023/05/15 15:16:24;;;;;;;4.35;1.55;;;;;;;;;;20984014;28;20224;-82
2023/05/15 15:26:26;;;;;;;2.45;1.27;;;;;;;;;;21051009;28;20227;-81
2023/05/15 15:36:27;;;;;;;1.83;1.33;;;;;;;;;;21057747;28;20230;-79
2023/05/15 15:46:29;;;;;;;2.13;1.00;;;;;;;;;;21038662;28;20227;-79
2023/05/15 15:56:31;;;;;;;2.17;1.50;;;;;;;;;;20991941;28;20238;-82
2023/05/15 16:06:33;;;;;;;3.37;1.70;;;21.20;99.90;;;;;;21051662;28;20231;-82
2023/05/15 16:16:35;;;;;;;1.90;1.33;;;;;;;;;;21045367;28;20635;-80
2023/05/15 16:26:37;;;;;;;1.27;1.00;;;;;;;;;;21060495;28;20265;-79
2023/05/15 16:36:39;;;;;;;4.00;1.63;;;;;;;;;;20991154;28;20227;-79
2023/05/15 16:47:32;;;;;;;2.87;2.20;;;21.30;99.90;;;;;;21069544;28;20270;-81
2023/05/15 16:57:43;;;;;;;2.40;1.97;;;;;;;;;;20987616;28;20216;-79
2023/05/15 17:07:45;;;;;;;3.30;2.50;;;;;;;;;;20985219;28;20253;-81
2023/05/15 17:17:47;;;;;;;3.13;2.37;;;;;;;;;;21001877;28;20226;-81
2023/05/15 17:27:48;;;;;;;3.97;2.87;;;;;;;;;;21038482;28;20244;-81
2023/05/15 17:37:50;;;;;;;3.30;2.50;;;;;;;;;;20969768;28;20225;-82
2023/05/15 17:47:52;;;;;;;3.03;2.17;;;;;;;;;;21018867;28;20271;-81
2023/05/15 17:57:59;;;;;;;3.00;2.40;;;;;;;;;;21105950;22;20251;-67
2023/05/15 18:08:02;;;;;;;3.00;2.37;;;;;;;;;;20973055;28;20262;-67
2023/05/15 18:18:05;;;;;;;3.10;2.20;;;;;;;;;;20888941;28;20287;-68
2023/05/15 18:28:07;;;;;;;2.33;2.00;;;;;;;;;;20909514;28;20199;-68
2023/05/15 18:38:09;;;;;;;3.40;2.43;;;;;;;;;;20909415;28;20241;-68
2023/05/15 18:48:10;;;;;;;5.27;2.73;;;;;;;;;;20905848;28;20562;-68
2023/05/15 18:58:12;;;;;;;2.70;2.20;;;;;;;;;;20904975;28;20586;-68
2023/05/15 19:08:14;;;;;;;3.27;2.17;;;;;;;;;;20904440;28;20269;-68
2023/05/15 19:18:15;;;;;;;4.37;2.30;;;;;;;;;;20904763;28;20767;-68
2023/05/15 19:28:17;;;;;;;3.07;1.93;;;;;;;;;;20904928;28;20203;-68
2023/05/15 19:38:19;;;;;;;2.00;1.53;;;;;;;;;;20900088;28;20250;-68
2023/05/15 19:48:20;;;;;;;3.13;2.23;;;;;;;;;;20908361;28;20587;-68
2023/05/15 19:58:22;;;;;;;2.73;2.07;;;;;;;;;;20928571;28;20283;-69
2023/05/15 20:08:25;;;;;;;2.93;2.30;;;;;;;;;;20899767;28;20219;-69
2023/05/15 20:18:28;;;;;;;3.47;2.73;;;;;;;;;;20913151;28;20288;-68
2023/05/15 20:28:30;;;;;;;3.37;2.50;;;;;;;;;;20902274;28;20202;-68
2023/05/15 20:38:32;;;;;;;3.27;2.40;;;;;;;;;;20899271;28;20232;-68
2023/05/15 20:48:35;;;;;;;4.33;3.10;;;18.50;99.90;;;;;;20879735;28;20210;-70
2023/05/15 20:58:36;;;;;;;2.90;2.20;;;;;;;;;;20897758;28;20620;-70
2023/05/15 21:08:38;;;;;;;3.20;2.57;;;;;;;;;;20895170;28;20665;-70
2023/05/15 21:18:40;;;;;;;3.77;2.57;;;;;;;;;;20896033;28;20734;-68
2023/05/15 21:28:41;;;;;;;3.33;2.60;;;;;;;;;;20894791;28;20624;-68
2023/05/15 21:38:43;;;;;;;2.77;2.27;;;;;;;;;;20898524;28;20248;-68
2023/05/15 21:48:45;;;;;;;3.60;3.00;;;;;;;;;;20899164;28;20236;-69
2023/05/15 21:58:47;;;;;;;4.00;3.20;;;;;;;;;;20899482;28;20249;-68
2023/05/15 22:08:49;;;;;;;4.43;3.43;;;;;;;;;;20881056;28;20218;-70
2023/05/15 22:18:52;;;;;;;5.17;3.10;;;;;;;;;;20901944;28;20689;-69
2023/05/15 22:28:57;;;;;;;4.03;2.90;;;17.90;99.90;;;;;;20890374;28;20222;-69
2023/05/15 22:38:59;;;;;;;5.00;2.77;;;;;;;;;;20916376;28;20237;-69
2023/05/15 22:49:01;;;;;;;4.07;2.77;;;;;;;;;;20914262;28;20255;-71
2023/05/15 22:59:03;;;;;;;4.13;3.00;;;;;;;;;;20921108;28;20230;-68
2023/05/15 23:09:04;;;;;;;3.80;2.80;;;;;;;;;;20913179;28;20206;-70
2023/05/15 23:19:06;;;;;;;3.90;3.00;;;;;;;;;;20912777;28;20447;-69
2023/05/15 23:29:08;;;;;;;4.63;3.50;;;;;;;;;;20911160;28;20206;-68
2023/05/15 23:39:09;;;;;;;5.20;3.67;;;;;;;;;;20910150;28;20218;-70
2023/05/15 23:49:11;;;;;;;6.10;4.70;;;;;;;;;;20909389;28;20263;-69
2023/05/15 23:59:13;;;;;;;7.10;5.07;;;;;;;;;;20906607;28;20299;-68
